Time;durP1;ratioP1;P1;durP2;ratioP2;P2;SDS_P1;SDS_P2;PMS_P1;PMS_P2;Temp;Humidity;BMP_temperature;BMP_pressure;BME280_temperature;BME280_humidity;BME280_pressure;Samples;Min_cycle;Max_cycle;Signal;HPM_P1;HPM_P2
2023/01/05 00:00:16;;;;;;;;;;;;;;;;;;1043958;28;2812;-55
2023/01/05 00:01:07;;;;;;;;;;;;;;;;;;1042113;28;4006;-59
2023/01/05 00:01:38;;;;;;;;;;;;;;;;;;1044405;28;2096;-58
2023/01/05 00:02:08;;;;;;;;;;;;;;;;;;1042284;28;3887;-55
2023/01/05 00:02:38;;;;;;;;;;;;;;;;;;1043700;28;1675;-59
2023/01/05 00:03:08;;;;;;;;;;;;;;;;;;1045477;28;3723;-58
2023/01/05 00:03:39;;;;;;;;;;;;;;;;;;1045483;28;1903;-58
2023/01/05 00:04:10;;;;;;;;;;;;;;;;;;1045375;28;4348;-58
2023/01/05 00:04:40;;;;;;;;;;;;;;;;;;1047220;28;1828;-58
2023/01/05 00:05:11;;;;;;;;;;;;;;;;;;1044880;28;3716;-58
2023/01/05 00:05:41;;;;;;;;;;;;;;;;;;1045754;28;2793;-58
2023/01/05 00:06:13;;;;;;;;;;;;;;;;;;1043785;28;3930;-59
2023/01/05 00:06:44;;;;;;;;;;;;;;;;;;1045314;28;4455;-59
2023/01/05 00:07:14;;;;;;;;;;;;;;;;;;1046009;28;2674;-59
2023/01/05 00:07:44;;;;;;;;;;;;;;;;;;1045357;28;4102;-57
2023/01/05 00:08:14;;;;;;;;;;;;;;;;;;1047260;28;1814;-59
2023/01/05 00:08:45;;;;;;;;;;;;;;;;;;1045346;28;3910;-59
2023/01/05 00:09:16;;;;;;;;;;;;;;;;;;1047538;28;1670;-59
2023/01/05 00:09:46;;;;;;;;;;;;;;;;;;1045752;28;4422;-56
2023/01/05 00:22:55;;;;;;;;;;;;;;;;;;1041856;28;4032;-57
2023/01/05 00:23:26;;;;;;;;;;;;;;;;;;1045110;28;2040;-59
2023/01/05 00:23:56;;;;;;;;;;;;;;;;;;1043249;28;4471;-58
2023/01/05 00:24:32;;;;;;;;;;;;;;;;;;1044072;28;2686;-58
2023/01/05 00:25:05;;;;;;;;;;;;;;;;;;1043970;28;3940;-55
2023/01/05 00:25:36;;;;;;;;;;;;;;;;;;1043254;28;2047;-59
2023/01/05 00:26:07;;;;;;;;;;;;;;;;;;1042726;28;4511;-60
2023/01/05 00:26:37;;;;;;;;;;;;;;;;;;1045663;28;1778;-57
2023/01/05 00:27:07;;;;;;;;;;;;;;;;;;1045984;28;4406;-59
2023/01/05 00:27:50;;;;;;;;;;;;;;;;;;1043672;28;2801;-57
2023/01/05 00:28:26;;;;;;;;;;;;;;;;;;1049363;28;3868;-56
2023/01/05 00:29:03;;;;;;;;;;;;;;;;;;1047812;28;4031;-58
2023/01/05 00:29:34;;;;;;;;;;;;;;;;;;1048792;28;2154;-56
2023/01/05 00:30:04;;;;;;;;;;;;;;;;;;1047675;28;3850;-57
2023/01/05 00:30:40;;;;;;;;;;;;;;;;;;1049453;28;2187;-58
2023/01/05 00:31:14;;;;;;;;;;;;;;;;;;1050919;28;3768;-59
2023/01/05 00:31:44;;;;;;;;;;;;;;;;;;1047779;28;4255;-59
2023/01/05 00:32:14;;;;;;;;;;;;;;;;;;1043747;28;2374;-58
2023/01/05 00:32:45;;;;;;;;;;;;;;;;;;1043349;28;4068;-59
2023/01/05 00:33:16;;;;;;;;;;;;;;;;;;1045235;28;1860;-58
2023/01/05 00:33:46;;;;;;;;;;;;;;;;;;1043864;28;4228;-58
2023/01/05 00:34:16;;;;;;;;;;;;;;;;;;1047986;28;2202;-58
2023/01/05 00:34:47;;;;;;;;;;;;;;;;;;1045299;28;3946;-58
2023/01/05 00:35:17;;;;;;;;;;;;;;;;;;1045407;28;2520;-58
2023/01/05 00:35:47;;;;;;;;;;;;;;;;;;1043450;28;4447;-58
2023/01/05 00:36:18;;;;;;;;;;;;;;;;;;1044233;28;2214;-58
2023/01/05 00:36:48;;;;;;;;;;;;;;;;;;1049067;28;4047;-59
2023/01/05 00:37:18;;;;;;;;;;;;;;;;;;1048647;28;2527;-54
2023/01/05 00:37:49;;;;;;;;;;;;;;;;;;1047897;28;3954;-58
2023/01/05 00:38:19;;;;;;;;;;;;;;;;;;1048004;28;1778;-58
2023/01/05 00:38:49;;;;;;;;;;;;;;;;;;1049761;28;4038;-58
2023/01/05 00:39:20;;;;;;;;;;;;;;;;;;1047043;28;3035;-59
2023/01/05 00:39:50;;;;;;;;;;;;;;;;;;1047376;28;5379;-57
2023/01/05 00:40:21;;;;;;;;;;;;;;;;;;1049636;28;3359;-58
2023/01/05 00:40:51;;;;;;;;;;;;;;;;;;1049640;28;4352;-58
2023/01/05 00:41:21;;;;;;;;;;;;;;;;;;1049022;28;2902;-58
2023/01/05 00:41:51;;;;;;;;;;;;;;;;;;1051144;28;4048;-56
2023/01/05 00:42:22;;;;;;;;;;;;;;;;;;1050958;28;1472;-56
2023/01/05 00:42:52;;;;;;;;;;;;;;;;;;1048889;28;4051;-59
2023/01/05 00:43:22;;;;;;;;;;;;;;;;;;1045270;28;2770;-57
2023/01/05 00:43:52;;;;;;;;;;;;;;;;;;1044979;28;3873;-57
2023/01/05 00:44:22;;;;;;;;;;;;;;;;;;1045853;28;2355;-60
2023/01/05 00:44:53;;;;;;;;;;;;;;;;;;1044561;28;3915;-57
2023/01/05 00:45:23;;;;;;;;;;;;;;;;;;1050102;28;2780;-59
2023/01/05 00:45:53;;;;;;;;;;;;;;;;;;1051436;28;3885;-58
2023/01/05 00:46:24;;;;;;;;;;;;;;;;;;1051725;28;2657;-58
2023/01/05 00:46:54;;;;;;;;;;;;;;;;;;1048303;28;4070;-58
2023/01/05 00:47:24;;;;;;;;;;;;;;;;;;1049146;28;2346;-58
2023/01/05 00:47:54;;;;;;;;;;;;;;;;;;1048785;28;3958;-59
2023/01/05 00:48:25;;;;;;;;;;;;;;;;;;1048631;28;2196;-59
2023/01/05 00:48:55;;;;;;;;;;;;;;;;;;1049405;28;5454;-58
2023/01/05 00:49:25;;;;;;;;;;;;;;;;;;1049609;28;4089;-58
2023/01/05 00:49:55;;;;;;;;;;;;;;;;;;1051672;28;4014;-59
2023/01/05 00:50:26;;;;;;;;;;;;;;;;;;1049252;28;1866;-59
2023/01/05 00:50:56;;;;;;;;;;;;;;;;;;1052021;28;4369;-58
2023/01/05 00:51:26;;;;;;;;;;;;;;;;;;1047698;28;2786;-59
2023/01/05 00:51:57;;;;;;;;;;;;;;;;;;1049729;28;4420;-57
2023/01/05 00:52:27;;;;;;;;;;;;;;;;;;1050414;28;1879;-58
2023/01/05 00:52:57;;;;;;;;;;;;;;;;;;1049226;28;4173;-59
2023/01/05 00:53:28;;;;;;;;;;;;;;;;;;1048090;28;2796;-59
2023/01/05 00:53:58;;;;;;;;;;;;;;;;;;1045737;28;4416;-56
2023/01/05 00:54:28;;;;;;;;;;;;;;;;;;1043474;28;2781;-57
2023/01/05 00:54:58;;;;;;;;;;;;;;;;;;1044713;28;4373;-58
2023/01/05 00:55:28;;;;;;;;;;;;;;;;;;1043389;28;2867;-57
2023/01/05 00:55:59;;;;;;;;;;;;;;;;;;1049262;28;4066;-58
2023/01/05 00:56:29;;;;;;;;;;;;;;;;;;1050305;28;3044;-58
2023/01/05 00:57:00;;;;;;;;;;;;;;;;;;1049241;28;4356;-57
2023/01/05 00:57:30;;;;;;;;;;;;;;;;;;1051919;28;2207;-58
2023/01/05 00:58:00;;;;;;;;;;;;;;;;;;1049492;28;3912;-59
2023/01/05 00:58:30;;;;;;;;;;;;;;;;;;1046876;28;2671;-58
2023/01/05 00:59:01;;;;;;;;;;;;;;;;;;1049662;28;4365;-59
2023/01/05 00:59:31;;;;;;;;;;;;;;;;;;1049697;28;2845;-58
2023/01/05 01:00:03;;;;;;;;;;;;;;;;;;1048088;28;3790;-58
2023/01/05 01:00:33;;;;;;;;;;;;;;;;;;1048579;28;2861;-56
2023/01/05 01:01:13;;;;;;;;;;;;;;;;;;1049888;28;3805;-58
2023/01/05 01:01:47;;;;;;;;;;;;;;;;;;1046710;28;4049;-59
2023/01/05 01:02:17;;;;;;;;;;;;;;;;;;1049180;28;2919;-59
2023/01/05 01:02:50;;;;;;;;;;;;;;;;;;1047228;28;4034;-58
2023/01/05 01:03:20;;;;;;;;;;;;;;;;;;1047972;28;3052;-59
2023/01/05 01:03:51;;;;;;;;;;;;;;;;;;1050692;28;4385;-58
2023/01/05 01:04:21;;;;;;;;;;;;;;;;;;1045705;28;4002;-57
2023/01/05 01:04:51;;;;;;;;;;;;;;;;;;1045089;28;4431;-58
2023/01/05 01:05:22;;;;;;;;;;;;;;;;;;1042353;28;4185;-58
2023/01/05 01:05:55;;;;;;;;;;;;;;;;;;1044415;28;5166;-56
2023/01/05 01:06:26;;;;;;;;;;;;;;;;;;1049966;28;2320;-58
2023/01/05 01:06:57;;;;;;;;;;;;;;;;;;1044749;28;3893;-57
2023/01/05 01:07:27;;;;;;;;;;;;;;;;;;1045987;28;2053;-57
2023/01/05 01:08:03;;;;;;;;;;;;;;;;;;1040204;28;3841;-59
2023/01/05 01:08:34;;;;;;;;;;;;;;;;;;1041878;28;2876;-59
2023/01/05 01:09:04;;;;;;;;;;;;;;;;;;1044801;28;4040;-59
2023/01/05 01:09:36;;;;;;;;;;;;;;;;;;1045057;28;2937;-58
2023/01/05 01:10:06;;;;;;;;;;;;;;;;;;1047260;28;3934;-59
2023/01/05 01:10:40;;;;;;;;;;;;;;;;;;1046300;28;2982;-60
2023/01/05 01:11:10;;;;;;;;;;;;;;;;;;1044933;28;4382;-57
2023/01/05 01:11:40;;;;;;;;;;;;;;;;;;1043863;28;2928;-59
2023/01/05 01:12:10;;;;;;;;;;;;;;;;;;1044124;28;4629;-56
2023/01/05 01:12:41;;;;;;;;;;;;;;;;;;1049479;28;4106;-58
2023/01/05 01:13:11;;;;;;;;;;;;;;;;;;1047292;28;4098;-58
2023/01/05 01:13:43;;;;;;;;;;;;;;;;;;1049968;28;3001;-59
2023/01/05 01:14:14;;;;;;;;;;;;;;;;;;1048839;28;3691;-57
2023/01/05 01:14:48;;;;;;;;;;;;;;;;;;1049221;28;3845;-57
2023/01/05 01:15:18;;;;;;;;;;;;;;;;;;1048317;28;2151;-56
2023/01/05 01:15:48;;;;;;;;;;;;;;;;;;1048208;28;3981;-58
2023/01/05 01:16:19;;;;;;;;;;;;;;;;;;1048813;28;2630;-57
2023/01/05 01:16:49;;;;;;;;;;;;;;;;;;1044913;28;4012;-58
2023/01/05 01:17:19;;;;;;;;;;;;;;;;;;1045636;28;2789;-59
2023/01/05 01:17:50;;;;;;;;;;;;;;;;;;1046073;28;4013;-58
2023/01/05 01:18:22;;;;;;;;;;;;;;;;;;1046417;28;2530;-59
2023/01/05 01:18:52;;;;;;;;;;;;;;;;;;1050098;28;4260;-58
2023/01/05 01:19:23;;;;;;;;;;;;;;;;;;1050912;28;2083;-57
2023/01/05 01:19:53;;;;;;;;;;;;;;;;;;1043335;28;4026;-60
2023/01/05 01:20:24;;;;;;;;;;;;;;;;;;1043667;28;2577;-59
2023/01/05 01:20:54;;;;;;;;;;;;;;;;;;1044694;28;3871;-59
2023/01/05 01:21:25;;;;;;;;;;;;;;;;;;1043611;28;2921;-57
2023/01/05 01:21:55;;;;;;;;;;;;;;;;;;1047442;28;4067;-58
2023/01/05 01:22:25;;;;;;;;;;;;;;;;;;1049340;28;3014;-57
2023/01/05 01:22:59;;;;;;;;;;;;;;;;;;1048827;28;4258;-58
2023/01/05 01:23:29;;;;;;;;;;;;;;;;;;1049267;28;2297;-58
2023/01/05 01:23:59;;;;;;;;;;;;;;;;;;1051573;28;4206;-56
2023/01/05 01:24:31;;;;;;;;;;;;;;;;;;1050069;28;2732;-59
2023/01/05 01:25:01;;;;;;;;;;;;;;;;;;1049660;28;3783;-59
2023/01/05 01:25:32;;;;;;;;;;;;;;;;;;1048751;28;2793;-59
2023/01/05 01:26:03;;;;;;;;;;;;;;;;;;1048031;28;4030;-58
2023/01/05 01:26:33;;;;;;;;;;;;;;;;;;1044200;28;3098;-58
2023/01/05 01:27:03;;;;;;;;;;;;;;;;;;1044192;28;4326;-57
2023/01/05 01:27:33;;;;;;;;;;;;;;;;;;1046496;28;2725;-59
2023/01/05 01:28:10;;;;;;;;;;;;;;;;;;1043432;28;4104;-57
2023/01/05 01:28:47;;;;;;;;;;;;;;;;;;1041364;28;2786;-57
2023/01/05 01:29:18;;;;;;;;;;;;;;;;;;1043429;28;4040;-59
2023/01/05 01:29:48;;;;;;;;;;;;;;;;;;1043650;28;3849;-55
2023/01/05 01:30:18;;;;;;;;;;;;;;;;;;1041955;28;2043;-59
2023/01/05 01:30:49;;;;;;;;;;;;;;;;;;1039030;28;4383;-60
2023/01/05 01:31:19;;;;;;;;;;;;;;;;;;1041245;28;1614;-60
2023/01/05 01:31:50;;;;;;;;;;;;;;;;;;1039147;28;3957;-57
2023/01/05 01:32:23;;;;;;;;;;;;;;;;;;1040464;28;2089;-57
2023/01/05 01:32:53;;;;;;;;;;;;;;;;;;1042166;28;3973;-55
2023/01/05 01:33:23;;;;;;;;;;;;;;;;;;1043354;28;2171;-57
2023/01/05 01:33:53;;;;;;;;;;;;;;;;;;1041108;28;3955;-58
2023/01/05 01:34:24;;;;;;;;;;;;;;;;;;1042988;28;1841;-59
2023/01/05 01:34:54;;;;;;;;;;;;;;;;;;1042164;28;4057;-59
2023/01/05 01:35:24;;;;;;;;;;;;;;;;;;1042937;28;2033;-58
2023/01/05 01:35:55;;;;;;;;;;;;;;;;;;1039333;28;3937;-58
2023/01/05 01:36:25;;;;;;;;;;;;;;;;;;1039476;28;1830;-60
2023/01/05 01:36:55;;;;;;;;;;;;;;;;;;1043287;28;4561;-58
2023/01/05 01:37:26;;;;;;;;;;;;;;;;;;1042589;28;2202;-59
2023/01/05 01:37:56;;;;;;;;;;;;;;;;;;1042674;28;4072;-59
2023/01/05 01:38:26;;;;;;;;;;;;;;;;;;1043998;28;3409;-59
2023/01/05 01:38:56;;;;;;;;;;;;;;;;;;1040149;28;4091;-58
2023/01/05 01:39:27;;;;;;;;;;;;;;;;;;1039229;28;2654;-58
2023/01/05 01:39:57;;;;;;;;;;;;;;;;;;1039463;28;3949;-59
2023/01/05 01:40:27;;;;;;;;;;;;;;;;;;1041441;28;1611;-56
2023/01/05 01:40:58;;;;;;;;;;;;;;;;;;1043718;28;4398;-58
2023/01/05 01:41:28;;;;;;;;;;;;;;;;;;1039320;28;2584;-58
2023/01/05 01:41:58;;;;;;;;;;;;;;;;;;1039311;28;4428;-58
2023/01/05 01:42:28;;;;;;;;;;;;;;;;;;1040631;28;2021;-58
2023/01/05 01:42:59;;;;;;;;;;;;;;;;;;1042958;28;4205;-59
2023/01/05 01:43:46;;;;;;;;;;;;;;;;;;1043213;28;2004;-60
2023/01/05 01:44:35;;;;;;;;;;;;;;;;;;1039456;28;4178;-58
2023/01/05 01:45:16;;;;;;;;;;;;;;;;;;1041216;28;3963;-60
2023/01/05 01:45:46;;;;;;;;;;;;;;;;;;1040000;28;5438;-56
2023/01/05 01:46:17;;;;;;;;;;;;;;;;;;1039978;28;1764;-59
2023/01/05 01:46:48;;;;;;;;;;;;;;;;;;1039804;28;4206;-56
2023/01/05 01:47:21;;;;;;;;;;;;;;;;;;1043411;28;1893;-59
2023/01/05 01:47:59;;;;;;;;;;;;;;;;;;1039337;28;3942;-58
2023/01/05 01:48:30;;;;;;;;;;;;;;;;;;1041435;28;2780;-58
2023/01/05 01:49:02;;;;;;;;;;;;;;;;;;1039223;28;3932;-59
2023/01/05 01:49:32;;;;;;;;;;;;;;;;;;1040662;28;2731;-58
2023/01/05 01:50:07;;;;;;;;;;;;;;;;;;1041236;28;3963;-58
2023/01/05 01:50:42;;;;;;;;;;;;;;;;;;1043544;28;1649;-60
2023/01/05 01:51:19;;;;;;;;;;;;;;;;;;1042236;28;3646;-57
2023/01/05 01:51:49;;;;;;;;;;;;;;;;;;1040348;28;4359;-58
2023/01/05 01:52:21;;;;;;;;;;;;;;;;;;1041926;28;2232;-59
2023/01/05 01:52:53;;;;;;;;;;;;;;;;;;1040408;28;3787;-58
2023/01/05 01:53:36;;;;;;;;;;;;;;;;;;1041073;28;2126;-57
2023/01/05 01:54:08;;;;;;;;;;;;;;;;;;1040094;28;3929;-57
2023/01/05 01:54:39;;;;;;;;;;;;;;;;;;1040808;28;2786;-58
2023/01/05 01:55:09;;;;;;;;;;;;;;;;;;1042300;28;4106;-59
2023/01/05 01:55:40;;;;;;;;;;;;;;;;;;1043285;28;2657;-57
2023/01/05 01:56:12;;;;;;;;;;;;;;;;;;1041099;28;3910;-57
2023/01/05 01:56:46;;;;;;;;;;;;;;;;;;1042299;28;2691;-58
2023/01/05 01:57:16;;;;;;;;;;;;;;;;;;1043073;28;3735;-59
2023/01/05 01:57:47;;;;;;;;;;;;;;;;;;1039120;28;3786;-58
2023/01/05 01:58:18;;;;;;;;;;;;;;;;;;1040049;28;2786;-58
2023/01/05 01:58:49;;;;;;;;;;;;;;;;;;1040602;28;4380;-59
2023/01/05 01:59:20;;;;;;;;;;;;;;;;;;1039650;28;2763;-59
2023/01/05 01:59:50;;;;;;;;;;;;;;;;;;1037438;28;3800;-59
2023/01/05 02:00:20;;;;;;;;;;;;;;;;;;1039860;28;2867;-58
2023/01/05 02:00:51;;;;;;;;;;;;;;;;;;1039941;28;3905;-59
2023/01/05 02:01:21;;;;;;;;;;;;;;;;;;1039838;28;2006;-59
2023/01/05 02:01:53;;;;;;;;;;;;;;;;;;1038717;28;3893;-60
2023/01/05 02:02:25;;;;;;;;;;;;;;;;;;1043403;28;1396;-59
2023/01/05 02:02:56;;;;;;;;;;;;;;;;;;1039952;28;4112;-58
2023/01/05 02:03:26;;;;;;;;;;;;;;;;;;1041237;28;2739;-58
2023/01/05 02:03:57;;;;;;;;;;;;;;;;;;1042606;28;4019;-59
2023/01/05 02:04:31;;;;;;;;;;;;;;;;;;1043865;28;2509;-59
2023/01/05 02:05:03;;;;;;;;;;;;;;;;;;1040537;28;4408;-59
2023/01/05 02:05:36;;;;;;;;;;;;;;;;;;1042395;28;2925;-57
2023/01/05 02:06:07;;;;;;;;;;;;;;;;;;1040713;28;4427;-59
2023/01/05 02:06:37;;;;;;;;;;;;;;;;;;1040274;28;3342;-59
2023/01/05 02:07:08;;;;;;;;;;;;;;;;;;1039466;28;3917;-59
2023/01/05 02:07:42;;;;;;;;;;;;;;;;;;1041154;28;1844;-57
2023/01/05 02:08:13;;;;;;;;;;;;;;;;;;1039345;28;3809;-57
2023/01/05 02:08:44;;;;;;;;;;;;;;;;;;1039593;28;4077;-57
2023/01/05 02:09:14;;;;;;;;;;;;;;;;;;1040730;28;2753;-58
2023/01/05 02:09:45;;;;;;;;;;;;;;;;;;1038979;28;4058;-58
2023/01/05 02:10:16;;;;;;;;;;;;;;;;;;1040330;28;2850;-56
2023/01/05 02:11:14;;;;;;;;;;;;;;;;;;1041507;28;3783;-56
2023/01/05 02:12:03;;;;;;;;;;;;;;;;;;1039755;28;5492;-58
2023/01/05 02:12:52;;;;;;;;;;;;;;;;;;1038571;28;2711;-58
2023/01/05 02:13:41;;;;;;;;;;;;;;;;;;1040003;28;3773;-58
2023/01/05 02:14:11;;;;;;;;;;;;;;;;;;1042653;28;3976;-59
2023/01/05 02:14:50;;;;;;;;;;;;;;;;;;1039437;28;2951;-57
2023/01/05 02:15:31;;;;;;;;;;;;;;;;;;1040017;28;4042;-58
2023/01/05 02:16:26;;;;;;;;;;;;;;;;;;1039354;28;3820;-57
2023/01/05 02:17:14;;;;;;;;;;;;;;;;;;1038856;28;3898;-60
2023/01/05 02:17:57;;;;;;;;;;;;;;;;;;1038300;28;4288;-59
2023/01/05 02:18:43;;;;;;;;;;;;;;;;;;1040953;28;2817;-58
2023/01/05 02:19:39;;;;;;;;;;;;;;;;;;1042223;28;3643;-58
2023/01/05 02:20:27;;;;;;;;;;;;;;;;;;1037009;28;3954;-59
2023/01/05 02:21:06;;;;;;;;;;;;;;;;;;1040350;28;4188;-58
2023/01/05 02:21:36;;;;;;;;;;;;;;;;;;1041658;28;2444;-58
2023/01/05 02:22:26;;;;;;;;;;;;;;;;;;1041916;28;4018;-59
2023/01/05 02:22:57;;;;;;;;;;;;;;;;;;1038631;28;4243;-58
2023/01/05 02:23:44;;;;;;;;;;;;;;;;;;1040441;28;3104;-60
2023/01/05 02:24:47;;;;;;;;;;;;;;;;;;1040759;28;3896;-57
2023/01/05 02:25:28;;;;;;;;;;;;;;;;;;1029085;28;3676;-58
2023/01/05 02:26:17;;;;;;;;;;;;;;;;;;1028927;28;5126;-59
2023/01/05 02:26:47;;;;;;;;;;;;;;;;;;1040316;28;3793;-59
2023/01/05 02:27:20;;;;;;;;;;;;;;;;;;1042332;28;2627;-59
2023/01/05 02:28:12;;;;;;;;;;;;;;;;;;1041241;28;4055;-55
2023/01/05 02:28:55;;;;;;;;;;;;;;;;;;1039617;28;2790;-57
2023/01/05 02:29:28;;;;;;;;;;;;;;;;;;1041783;28;3987;-57
2023/01/05 02:30:17;;;;;;;;;;;;;;;;;;1039705;28;4432;-60
2023/01/05 02:30:58;;;;;;;;;;;;;;;;;;1040975;28;3805;-59
2023/01/05 02:31:34;;;;;;;;;;;;;;;;;;1041493;28;2681;-59
2023/01/05 02:32:17;;;;;;;;;;;;;;;;;;1041137;28;3943;-58
2023/01/05 02:33:01;;;;;;;;;;;;;;;;;;1039858;28;4063;-60
2023/01/05 02:33:39;;;;;;;;;;;;;;;;;;1041007;28;2003;-59
2023/01/05 02:34:12;;;;;;;;;;;;;;;;;;1040578;28;4091;-56
2023/01/05 02:34:48;;;;;;;;;;;;;;;;;;1040665;28;2805;-55
2023/01/05 02:35:21;;;;;;;;;;;;;;;;;;1038824;28;4248;-59
2023/01/05 02:35:57;;;;;;;;;;;;;;;;;;1040254;28;4137;-59
2023/01/05 02:36:30;;;;;;;;;;;;;;;;;;1041448;28;2592;-59
2023/01/05 02:37:09;;;;;;;;;;;;;;;;;;1040158;28;3802;-58
2023/01/05 02:37:59;;;;;;;;;;;;;;;;;;1040268;28;3240;-57
2023/01/05 02:38:30;;;;;;;;;;;;;;;;;;1038192;28;4011;-59
2023/01/05 02:39:05;;;;;;;;;;;;;;;;;;1039940;28;4244;-56
2023/01/05 02:39:35;;;;;;;;;;;;;;;;;;1040749;28;3756;-57
2023/01/05 02:40:26;;;;;;;;;;;;;;;;;;1041189;28;4062;-60
2023/01/05 02:40:58;;;;;;;;;;;;;;;;;;1038468;28;4259;-59
2023/01/05 02:41:35;;;;;;;;;;;;;;;;;;1041244;28;2783;-59
2023/01/05 02:42:08;;;;;;;;;;;;;;;;;;1043113;28;3975;-59
2023/01/05 02:42:39;;;;;;;;;;;;;;;;;;1041788;28;2912;-59
2023/01/05 02:43:11;;;;;;;;;;;;;;;;;;1042882;28;4104;-58
2023/01/05 02:43:43;;;;;;;;;;;;;;;;;;1040734;28;2800;-59
2023/01/05 02:44:17;;;;;;;;;;;;;;;;;;1041520;28;3763;-58
2023/01/05 02:44:47;;;;;;;;;;;;;;;;;;1040165;28;4118;-57
2023/01/05 02:45:20;;;;;;;;;;;;;;;;;;1038443;28;2774;-59
2023/01/05 02:45:50;;;;;;;;;;;;;;;;;;1040490;28;4049;-58
2023/01/05 02:46:20;;;;;;;;;;;;;;;;;;1039784;28;2538;-58
2023/01/05 02:47:05;;;;;;;;;;;;;;;;;;1041821;28;4051;-57
2023/01/05 02:47:37;;;;;;;;;;;;;;;;;;1041232;28;2929;-60
2023/01/05 02:48:07;;;;;;;;;;;;;;;;;;1041803;28;4081;-59
2023/01/05 02:48:38;;;;;;;;;;;;;;;;;;1040191;28;2636;-59
2023/01/05 02:49:08;;;;;;;;;;;;;;;;;;1040381;28;4130;-59
2023/01/05 02:49:39;;;;;;;;;;;;;;;;;;1042080;28;2894;-58
2023/01/05 02:50:23;;;;;;;;;;;;;;;;;;1041960;28;3771;-57
2023/01/05 02:51:00;;;;;;;;;;;;;;;;;;1042825;28;4183;-59
2023/01/05 02:51:39;;;;;;;;;;;;;;;;;;1040541;28;1833;-58
2023/01/05 02:52:10;;;;;;;;;;;;;;;;;;1040210;28;3990;-58
2023/01/05 02:53:07;;;;;;;;;;;;;;;;;;1043151;28;1887;-58
2023/01/05 02:53:41;;;;;;;;;;;;;;;;;;1035519;28;4270;-59
2023/01/05 02:54:18;;;;;;;;;;;;;;;;;;1036936;28;4074;-58
2023/01/05 02:54:54;;;;;;;;;;;;;;;;;;1041653;28;4015;-59
2023/01/05 02:55:31;;;;;;;;;;;;;;;;;;1040509;28;2791;-60
2023/01/05 02:56:05;;;;;;;;;;;;;;;;;;1040000;28;3786;-59
2023/01/05 02:56:45;;;;;;;;;;;;;;;;;;1040226;28;2782;-58
2023/01/05 02:57:16;;;;;;;;;;;;;;;;;;1039209;28;3955;-59
2023/01/05 02:58:00;;;;;;;;;;;;;;;;;;1038524;28;3942;-59
2023/01/05 02:58:38;;;;;;;;;;;;;;;;;;1039750;28;2344;-59
2023/01/05 02:59:27;;;;;;;;;;;;;;;;;;1038985;28;4065;-59
2023/01/05 02:59:57;;;;;;;;;;;;;;;;;;1038465;28;4224;-57
2023/01/05 03:00:31;;;;;;;;;;;;;;;;;;1039202;28;2870;-59
2023/01/05 03:01:04;;;;;;;;;;;;;;;;;;1042511;28;3780;-57
2023/01/05 03:01:36;;;;;;;;;;;;;;;;;;1042260;28;2691;-59
2023/01/05 03:02:09;;;;;;;;;;;;;;;;;;1041034;28;4401;-59
2023/01/05 03:02:40;;;;;;;;;;;;;;;;;;1043626;28;1617;-58
2023/01/05 03:03:14;;;;;;;;;;;;;;;;;;1040900;28;3989;-59
2023/01/05 03:03:46;;;;;;;;;;;;;;;;;;1040002;28;4210;-58
2023/01/05 03:04:40;;;;;;;;;;;;;;;;;;1040446;28;2126;-60
2023/01/05 03:05:22;;;;;;;;;;;;;;;;;;1031575;28;3945;-59
2023/01/05 03:05:55;;;;;;;;;;;;;;;;;;1040594;28;3775;-59
2023/01/05 03:06:38;;;;;;;;;;;;;;;;;;1038680;28;2767;-60
2023/01/05 03:07:11;;;;;;;;;;;;;;;;;;1038012;28;4664;-57
2023/01/05 03:07:42;;;;;;;;;;;;;;;;;;1040703;28;2955;-59
2023/01/05 03:08:20;;;;;;;;;;;;;;;;;;1038898;28;3888;-60
2023/01/05 03:08:52;;;;;;;;;;;;;;;;;;1041374;28;4138;-59
2023/01/05 03:09:26;;;;;;;;;;;;;;;;;;1038856;28;2501;-59
2023/01/05 03:09:56;;;;;;;;;;;;;;;;;;1040062;28;3802;-59
2023/01/05 03:14:01;;;;;;;;;;;;;;;;;;1039751;28;4270;-58
2023/01/05 03:14:35;;;;;;;;;;;;;;;;;;1039468;28;2760;-56
2023/01/05 03:15:07;;;;;;;;;;;;;;;;;;1039930;28;3962;-58
2023/01/05 03:15:38;;;;;;;;;;;;;;;;;;1041144;28;1674;-58
2023/01/05 03:16:10;;;;;;;;;;;;;;;;;;1040139;28;3873;-59
2023/01/05 03:16:42;;;;;;;;;;;;;;;;;;1040093;28;2825;-59
2023/01/05 03:17:16;;;;;;;;;;;;;;;;;;1036580;28;3799;-55
2023/01/05 03:17:48;;;;;;;;;;;;;;;;;;1040504;28;4429;-57
2023/01/05 03:18:19;;;;;;;;;;;;;;;;;;1041571;28;2101;-58
2023/01/05 03:19:42;;;;;;;;;;;;;;;;;;1041532;28;1777;-59
2023/01/05 03:20:14;;;;;;;;;;;;;;;;;;1040127;28;3876;-57
2023/01/05 03:20:46;;;;;;;;;;;;;;;;;;1040461;28;4058;-58
2023/01/05 03:21:25;;;;;;;;;;;;;;;;;;1038448;28;3465;-59
2023/01/05 03:35:55;;;;;;;;;;;;;;;;;;1040153;28;3807;-58
2023/01/05 03:36:27;;;;;;;;;;;;;;;;;;1040342;28;1751;-58
2023/01/05 03:37:00;;;;;;;;;;;;;;;;;;1038697;28;4095;-58
2023/01/05 03:37:32;;;;;;;;;;;;;;;;;;1039928;28;2852;-60
2023/01/05 03:38:09;;;;;;;;;;;;;;;;;;1038358;28;3941;-59
2023/01/05 03:38:42;;;;;;;;;;;;;;;;;;1040377;28;2489;-59
2023/01/05 03:39:13;;;;;;;;;;;;;;;;;;1041341;28;3818;-60
2023/01/05 03:39:44;;;;;;;;;;;;;;;;;;1040139;28;3943;-57
2023/01/05 03:40:26;;;;;;;;;;;;;;;;;;1042228;28;1772;-56
2023/01/05 03:40:58;;;;;;;;;;;;;;;;;;1040354;28;3840;-59
2023/01/05 03:41:28;;;;;;;;;;;;;;;;;;1039725;28;2068;-57
2023/01/05 03:41:59;;;;;;;;;;;;;;;;;;1038792;28;4035;-59
2023/01/05 03:42:29;;;;;;;;;;;;;;;;;;1041071;28;1667;-56
2023/01/05 03:43:00;;;;;;;;;;;;;;;;;;1039871;28;3903;-60
2023/01/05 03:43:35;;;;;;;;;;;;;;;;;;1043633;28;1426;-59
2023/01/05 03:44:05;;;;;;;;;;;;;;;;;;1039615;28;5569;-53
2023/01/05 03:44:39;;;;;;;;;;;;;;;;;;1039439;28;2752;-57
2023/01/05 03:45:10;;;;;;;;;;;;;;;;;;1039927;28;3971;-59
2023/01/05 03:45:41;;;;;;;;;;;;;;;;;;1042866;28;1826;-55
2023/01/05 03:46:19;;;;;;;;;;;;;;;;;;1040817;28;3891;-60
2023/01/05 03:46:50;;;;;;;;;;;;;;;;;;1043971;28;5385;-57
2023/01/05 03:47:21;;;;;;;;;;;;;;;;;;1045812;28;2213;-57
2023/01/05 03:47:52;;;;;;;;;;;;;;;;;;1045559;28;4045;-58
2023/01/05 03:48:24;;;;;;;;;;;;;;;;;;1044134;28;2268;-54
2023/01/05 03:48:54;;;;;;;;;;;;;;;;;;1039514;28;4078;-57
2023/01/05 03:49:24;;;;;;;;;;;;;;;;;;1039513;28;2122;-59
2023/01/05 03:49:54;;;;;;;;;;;;;;;;;;1039918;28;5494;-59
2023/01/05 03:50:25;;;;;;;;;;;;;;;;;;1041053;28;2256;-59
2023/01/05 03:50:55;;;;;;;;;;;;;;;;;;1042188;28;3879;-60
2023/01/05 03:51:25;;;;;;;;;;;;;;;;;;1042774;28;2090;-59
2023/01/05 03:51:55;;;;;;;;;;;;;;;;;;1041304;28;4092;-58
2023/01/05 03:52:25;;;;;;;;;;;;;;;;;;1040346;28;2957;-59
2023/01/05 03:52:56;;;;;;;;;;;;;;;;;;1040096;28;3796;-59
2023/01/05 03:53:26;;;;;;;;;;;;;;;;;;1041572;28;1970;-59
2023/01/05 03:53:56;;;;;;;;;;;;;;;;;;1038586;28;4094;-59
2023/01/05 03:54:26;;;;;;;;;;;;;;;;;;1034117;28;2740;-58
2023/01/05 03:54:57;;;;;;;;;;;;;;;;;;1040387;28;4209;-60
2023/01/05 03:55:27;;;;;;;;;;;;;;;;;;1039909;28;2158;-58
2023/01/05 03:55:57;;;;;;;;;;;;;;;;;;1040126;28;3902;-59
2023/01/05 03:56:27;;;;;;;;;;;;;;;;;;1041149;28;2083;-59
2023/01/05 03:56:58;;;;;;;;;;;;;;;;;;1039713;28;3896;-58
2023/01/05 03:57:28;;;;;;;;;;;;;;;;;;1040747;28;3045;-59
2023/01/05 03:57:58;;;;;;;;;;;;;;;;;;1038940;28;3957;-59
2023/01/05 03:58:28;;;;;;;;;;;;;;;;;;1038156;28;3101;-59
2023/01/05 03:58:59;;;;;;;;;;;;;;;;;;1039519;28;4441;-59
2023/01/05 03:59:35;;;;;;;;;;;;;;;;;;1042544;28;1755;-56
2023/01/05 04:00:06;;;;;;;;;;;;;;;;;;1040377;28;4084;-58
2023/01/05 04:00:36;;;;;;;;;;;;;;;;;;1041972;28;2822;-58
2023/01/05 04:01:07;;;;;;;;;;;;;;;;;;1041397;28;3809;-57
2023/01/05 04:01:37;;;;;;;;;;;;;;;;;;1041355;28;1587;-58
2023/01/05 04:02:07;;;;;;;;;;;;;;;;;;1040638;28;3966;-57
2023/01/05 04:02:38;;;;;;;;;;;;;;;;;;1040853;28;2378;-56
2023/01/05 04:03:09;;;;;;;;;;;;;;;;;;1039929;28;4062;-59
2023/01/05 04:03:42;;;;;;;;;;;;;;;;;;1039802;28;3019;-59
2023/01/05 04:04:12;;;;;;;;;;;;;;;;;;1040028;28;4301;-59
2023/01/05 04:04:42;;;;;;;;;;;;;;;;;;1040674;28;2882;-60
2023/01/05 04:05:12;;;;;;;;;;;;;;;;;;1038611;28;3875;-59
2023/01/05 04:05:43;;;;;;;;;;;;;;;;;;1039316;28;4417;-57
2023/01/05 04:06:13;;;;;;;;;;;;;;;;;;1042121;28;2026;-60
2023/01/05 04:06:43;;;;;;;;;;;;;;;;;;1041301;28;4439;-58
2023/01/05 04:07:14;;;;;;;;;;;;;;;;;;1041977;28;2293;-59
2023/01/05 04:07:44;;;;;;;;;;;;;;;;;;1039580;28;4004;-58
2023/01/05 04:08:15;;;;;;;;;;;;;;;;;;1037654;28;2026;-57
2023/01/05 04:08:45;;;;;;;;;;;;;;;;;;1034706;28;4096;-60
2023/01/05 04:09:16;;;;;;;;;;;;;;;;;;1035162;28;2661;-58
2023/01/05 04:09:46;;;;;;;;;;;;;;;;;;1040471;28;4679;-59
2023/01/05 04:10:16;;;;;;;;;;;;;;;;;;1041425;28;2791;-57
2023/01/05 04:10:46;;;;;;;;;;;;;;;;;;1038725;28;4363;-59
2023/01/05 04:11:18;;;;;;;;;;;;;;;;;;1041802;28;1857;-56
2023/01/05 04:11:48;;;;;;;;;;;;;;;;;;1039415;28;3901;-59
2023/01/05 04:12:19;;;;;;;;;;;;;;;;;;1042087;28;2758;-58
2023/01/05 04:12:49;;;;;;;;;;;;;;;;;;1040093;28;4233;-59
2023/01/05 04:13:19;;;;;;;;;;;;;;;;;;1041300;28;1702;-59
2023/01/05 04:13:50;;;;;;;;;;;;;;;;;;1038390;28;3916;-57
2023/01/05 04:14:20;;;;;;;;;;;;;;;;;;1039447;28;2532;-59
2023/01/05 04:14:50;;;;;;;;;;;;;;;;;;1039561;28;4385;-58
2023/01/05 04:15:27;;;;;;;;;;;;;;;;;;1039656;28;2815;-58
2023/01/05 04:15:57;;;;;;;;;;;;;;;;;;1038782;28;4072;-59
2023/01/05 04:16:28;;;;;;;;;;;;;;;;;;1039632;28;2054;-59
2023/01/05 04:16:58;;;;;;;;;;;;;;;;;;1040488;28;3938;-59
2023/01/05 04:17:28;;;;;;;;;;;;;;;;;;1040069;28;2992;-58
2023/01/05 04:17:58;;;;;;;;;;;;;;;;;;1039682;28;3821;-60
2023/01/05 04:18:29;;;;;;;;;;;;;;;;;;1042558;28;2388;-59
2023/01/05 04:18:59;;;;;;;;;;;;;;;;;;1043898;28;3978;-60
2023/01/05 04:19:29;;;;;;;;;;;;;;;;;;1042624;28;2057;-59
2023/01/05 04:19:59;;;;;;;;;;;;;;;;;;1045902;28;4033;-59